KCHSSECU

Guest
Details From KCHS - Charleston Afb Intl
To SECU - Mariscal Lamar
Flight Number -
Tags Generated
Created
Modified
Stats Distance 2,150 nm / 3,982 km
Max Altitude 0 ft / 0 m
Waypoints 6
Social Downloads 1
Likes 0
Share VATSIM

Download

Looking for another format? Having issues loading an existing format? Contact us
Advertisement - Login to hide

Notes

Generated

Route

KCHS CRIZZ AVION TUM84 R1519 SECU

ID Type Via Altitude Latitude Longitude Leg Dist Tot Dist Heading (true) Name
O KCHS APT - 0 ft / 0 m 32.88479˚ -80.04560˚ - 0 nm - -
CRIZZ FIX - 0 ft / 0 m 28.67194˚ -79.96250˚ 253 nm 253 nm 179° / 179° -
AVION FIX - 0 ft / 0 m 24.86456˚ -79.82892˚ 228 nm 481 nm 178° / 178° -
TUM84 FIX - 0 ft / 0 m 8.81537˚ -79.31364˚ 964 nm 1446 nm 178° / 178° -
R1519 FIX - 0 ft / 0 m -2.88420˚ -78.97766˚ 702 nm 2149 nm 178° / 178° -
O SECU APT - 0 ft / 0 m -2.89473˚ -78.99114˚ 1 nm 2150 nm 232° / 232° -

Altitude Profile

Advertisement - Login to hide

Weather


0- 5 10 15 20 25 30 35+ Temperature / ° C

Clouds and Precipitation
Forecast for 2017-12-16 12:00 UTC. Updated 2 hours ago

Ground ~20,000 ft ~40,000 ft Winds

KCHS

Details ICAO KCHS (CHS)
Name Charleston AFB Intl
Region United States
Timezone America/New_York (UTC-5.0)
Stats Elevation 45 ft / 14 m (AMSL)
Location 32.898080° -80.040556°
Runways 2
Magnetic Variation 7.891° W

METAR

KCHS 161256Z 34006KT 10SM FEW200 01/M02 A3029 RMK AO2 SLP257 T00061022

Decode

TAF

TAF KCHS 161120Z 1612/1712 01004KT P6SM FEW250 FM161500 VRB03KT P6SM FEW250

Decode

Departure Runways

ID Width Length Bearing (true) Bearing (mag) Surface Threshold Offset Overrun Length
03 150 ft / 46 m 7,019 ft / 2,140 m 24.30° 32.19° Asphalt 0 ft / 0 m 0 ft / 0 m
15 200 ft / 61 m 9,014 ft / 2,748 m 147.54° 155.43° Concrete 0 ft / 0 m 1,000 ft / 305 m
21 150 ft / 46 m 7,019 ft / 2,140 m 204.31° 212.20° Asphalt 0 ft / 0 m 0 ft / 0 m
33 200 ft / 61 m 9,014 ft / 2,748 m 327.55° 335.44° Concrete 0 ft / 0 m 1,000 ft / 305 m

SECU

Details ICAO SECU (CUE)
Name MARISCAL LAMAR
Region Equador
Timezone America/Guayaquil (UTC-5.0)
Stats Elevation 8,306 ft / 2,532 m (AMSL)
Location -2.889468° -78.984398°
Runways 1
Magnetic Variation 2.618° W

METAR

SECU 161300Z 13003KT 9999 FEW040 16/10 Q1027

Decode

TAF

Not found

Destination Runways

ID Width Length Bearing (true) Bearing (mag) Surface Threshold Offset Overrun Length
05 118 ft / 36 m 6,240 ft / 1,902 m 51.98° 54.60° Asphalt 0 ft / 0 m 141 ft / 43 m
23 118 ft / 36 m 6,240 ft / 1,902 m 231.97° 234.59° Asphalt 0 ft / 0 m 0 ft / 0 m

Approach Navaids

Runway Type Ident Frequency Range Bearing (true) Bearing (mag) Slope Elevation
23 Localiser ILC 110.90 MHz 18 nm / 33 km 232.25° 234.87° - 8,284 ft / 2,525 m (AMSL)
23 Glidescope ILC 110.90 MHz 10 nm / 19 km 231.97° 234.59° 3.20° 8,284 ft / 2,525 m (AMSL)
23 DME ILC 110.90 MHz 18 nm / 33 km - - - 8,306 ft / 2,532 m (AMSL)